createdAt,value
2022-08-28T00:00:19.292Z,19.50
2022-08-28T00:02:48.449Z,19.30
2022-08-28T00:05:20.593Z,19.30
2022-08-28T00:07:51.198Z,19.30
2022-08-28T00:10:22.617Z,19.40
2022-08-28T00:12:52.906Z,19.30
2022-08-28T00:15:28.138Z,19.20
2022-08-28T00:17:57.239Z,19.20
2022-08-28T00:20:26.973Z,19.20
2022-08-28T00:22:57.468Z,19.40
2022-08-28T00:25:28.779Z,19.00
2022-08-28T00:27:58.399Z,19.30
2022-08-28T00:30:30.436Z,19.20
2022-08-28T00:33:01.946Z,19.20
2022-08-28T00:35:31.056Z,19.40
2022-08-28T00:38:01.694Z,19.30
2022-08-28T00:40:33.964Z,19.30
2022-08-28T00:43:04.041Z,19.20
2022-08-28T00:45:38.809Z,19.10
2022-08-28T00:48:08.775Z,19.00
2022-08-28T00:50:51.706Z,18.80
2022-08-28T00:53:27.070Z,18.70
2022-08-28T00:55:59.472Z,18.50
2022-08-28T00:58:28.236Z,18.50
2022-08-28T01:00:57.348Z,18.60
2022-08-28T01:03:26.520Z,18.60
2022-08-28T01:05:55.796Z,18.50
2022-08-28T01:08:26.123Z,18.40
2022-08-28T01:11:04.327Z,18.40
2022-08-28T01:13:34.057Z,18.30
2022-08-28T01:16:04.833Z,18.30
2022-08-28T01:18:34.455Z,18.20
2022-08-28T01:21:12.247Z,18.20
2022-08-28T01:23:55.332Z,18.40
2022-08-28T01:26:24.326Z,18.30
2022-08-28T01:28:53.481Z,18.30
2022-08-28T01:31:22.525Z,18.10
2022-08-28T01:33:51.356Z,18.10
2022-08-28T01:36:20.809Z,18.20
2022-08-28T01:38:55.850Z,18.20
2022-08-28T01:41:24.574Z,18.20
2022-08-28T01:43:53.991Z,18.30
2022-08-28T01:46:23.173Z,18.10
2022-08-28T01:48:51.787Z,18.10
2022-08-28T01:51:24.376Z,17.90
2022-08-28T01:53:55.378Z,17.90
2022-08-28T01:56:24.314Z,17.70
2022-08-28T01:58:53.241Z,17.90
2022-08-28T02:01:23.842Z,17.90
2022-08-28T02:03:53.292Z,18.00
2022-08-28T02:06:22.444Z,18.00
2022-08-28T02:08:55.418Z,17.90
2022-08-28T02:11:27.720Z,17.90
2022-08-28T02:13:57.019Z,17.80
2022-08-28T02:16:26.954Z,17.70
2022-08-28T02:18:55.708Z,17.60
2022-08-28T02:21:25.459Z,17.60
2022-08-28T02:23:54.138Z,17.50
2022-08-28T02:26:24.825Z,17.70
2022-08-28T02:28:53.632Z,17.70
2022-08-28T02:31:22.431Z,17.70
2022-08-28T02:33:51.193Z,17.80
2022-08-28T02:36:20.358Z,17.80
2022-08-28T02:38:55.370Z,17.80
2022-08-28T02:41:28.025Z,17.80
2022-08-28T02:43:57.443Z,17.90
2022-08-28T02:46:26.550Z,18.10
2022-08-28T02:48:57.321Z,18.20
2022-08-28T02:51:26.341Z,18.00
2022-08-28T02:53:55.161Z,18.20
2022-08-28T02:56:24.265Z,18.40
2022-08-28T02:58:54.326Z,18.60
2022-08-28T03:01:25.623Z,18.60
2022-08-28T03:03:54.488Z,19.00
2022-08-28T03:06:23.282Z,18.70
2022-08-28T03:08:52.102Z,18.50
2022-08-28T03:11:20.976Z,18.70
2022-08-28T03:13:49.580Z,18.50
2022-08-28T03:16:20.658Z,18.20
2022-08-28T03:18:49.438Z,18.20
2022-08-28T03:21:18.222Z,18.00
2022-08-28T03:23:45.905Z,18.00
2022-08-28T03:26:17.022Z,17.90
2022-08-28T03:28:48.371Z,18.20
2022-08-28T03:31:23.795Z,17.80
2022-08-28T03:33:53.013Z,17.80
2022-08-28T03:36:26.216Z,17.70
2022-08-28T03:38:58.302Z,17.70
2022-08-28T03:41:29.619Z,17.90
2022-08-28T03:43:58.831Z,17.70
2022-08-28T03:46:32.931Z,17.80
2022-08-28T03:49:02.872Z,17.70
2022-08-28T03:51:34.407Z,17.60
2022-08-28T03:54:06.975Z,18.00
2022-08-28T03:56:35.743Z,18.00
2022-08-28T03:59:05.985Z,17.90
2022-08-28T04:01:38.468Z,18.00
2022-08-28T04:04:07.857Z,18.10
2022-08-28T04:06:36.798Z,18.20
2022-08-28T04:09:07.418Z,18.60
2022-08-28T04:11:40.886Z,18.50
2022-08-28T04:14:09.789Z,18.50
2022-08-28T04:16:40.241Z,18.50
2022-08-28T04:19:08.803Z,18.30
2022-08-28T04:21:37.610Z,18.40
2022-08-28T04:24:09.481Z,18.10
2022-08-28T04:26:38.941Z,18.10
2022-08-28T04:29:09.833Z,18.20
2022-08-28T04:31:40.233Z,18.20
2022-08-28T04:34:11.126Z,18.30
2022-08-28T04:36:41.479Z,18.40
2022-08-28T04:39:11.311Z,18.00
2022-08-28T04:41:40.331Z,18.00
2022-08-28T04:44:10.166Z,18.00
2022-08-28T04:46:40.984Z,17.70
2022-08-28T04:49:09.633Z,17.80
2022-08-28T04:51:41.972Z,17.80
2022-08-28T04:54:11.890Z,17.90
2022-08-28T04:56:42.016Z,17.70
2022-08-28T04:59:11.523Z,17.70
2022-08-28T05:01:43.403Z,17.60
2022-08-28T05:04:13.380Z,17.80
2022-08-28T05:06:46.417Z,17.80
2022-08-28T05:09:17.141Z,17.90
2022-08-28T05:11:46.550Z,18.20
2022-08-28T05:14:16.518Z,17.90
2022-08-28T05:16:50.520Z,18.10
2022-08-28T05:19:20.375Z,18.00
2022-08-28T05:21:49.426Z,18.10
2022-08-28T05:24:19.175Z,18.20
2022-08-28T05:26:48.496Z,18.00
2022-08-28T05:29:18.072Z,18.30
2022-08-28T05:31:48.590Z,18.70
2022-08-28T05:34:18.202Z,18.20
2022-08-28T05:36:46.965Z,18.40
2022-08-28T05:39:16.250Z,18.20
2022-08-28T05:41:47.367Z,18.10
2022-08-28T05:44:18.055Z,18.00
2022-08-28T05:46:48.932Z,18.10
2022-08-28T05:49:20.154Z,18.20
2022-08-28T05:51:50.308Z,18.50
2022-08-28T05:54:19.463Z,18.80
2022-08-28T05:56:49.522Z,18.60
2022-08-28T05:59:18.661Z,19.50
2022-08-28T06:01:51.247Z,20.10
2022-08-28T06:04:23.601Z,20.30
2022-08-28T06:06:53.051Z,20.60
2022-08-28T06:09:28.708Z,21.00
2022-08-28T06:12:01.928Z,21.10
2022-08-28T06:14:31.957Z,21.10
2022-08-28T06:17:04.180Z,21.20
2022-08-28T06:19:39.290Z,21.60
2022-08-28T06:22:12.569Z,21.90
2022-08-28T06:24:41.304Z,22.00
2022-08-28T06:27:10.291Z,22.10
2022-08-28T06:29:40.071Z,21.80
2022-08-28T06:32:10.249Z,21.60
2022-08-28T06:34:39.607Z,21.30
2022-08-28T06:37:09.975Z,21.20
2022-08-28T06:39:38.911Z,21.20
2022-08-28T06:42:07.812Z,21.40
2022-08-28T06:44:37.779Z,22.90
2022-08-28T06:47:07.389Z,24.70
2022-08-28T06:49:38.012Z,26.40
2022-08-28T06:52:06.799Z,27.60
2022-08-28T06:54:36.265Z,28.40
2022-08-28T06:57:06.850Z,29.40
2022-08-28T06:59:35.569Z,30.10
2022-08-28T07:02:06.236Z,30.30
2022-08-28T07:04:36.659Z,30.60
2022-08-28T07:07:05.603Z,29.90
2022-08-28T07:09:34.373Z,28.90
2022-08-28T07:12:03.199Z,27.20
2022-08-28T07:14:31.963Z,26.60
2022-08-28T07:17:00.986Z,26.10
2022-08-28T07:19:29.847Z,25.70
2022-08-28T07:22:00.452Z,25.30
2022-08-28T07:24:29.852Z,25.10
2022-08-28T07:26:59.723Z,24.80
2022-08-28T07:29:28.435Z,24.90
2022-08-28T07:31:59.193Z,25.20
2022-08-28T07:34:27.976Z,26.20
2022-08-28T07:36:58.489Z,27.40
2022-08-28T07:39:28.773Z,28.50
2022-08-28T07:41:57.953Z,29.70
2022-08-28T07:44:44.418Z,30.00
2022-08-28T07:47:16.088Z,30.10
2022-08-28T07:49:47.766Z,29.40
2022-08-28T07:52:16.697Z,28.20
2022-08-28T07:54:48.245Z,27.30
2022-08-28T07:57:18.315Z,26.10
2022-08-28T07:59:59.666Z,25.80
2022-08-28T08:02:28.558Z,25.70
2022-08-28T08:04:59.034Z,26.10
2022-08-28T08:07:29.411Z,26.10
2022-08-28T08:10:01.185Z,27.10
2022-08-28T08:12:30.768Z,27.80
2022-08-28T08:14:59.921Z,28.40
2022-08-28T08:17:29.113Z,29.10
2022-08-28T08:20:01.592Z,29.70
2022-08-28T08:22:32.017Z,30.50
2022-08-28T08:25:04.184Z,31.10
2022-08-28T08:27:33.234Z,30.90
2022-08-28T08:30:04.245Z,31.00
2022-08-28T08:32:33.455Z,31.40
2022-08-28T08:35:02.731Z,31.90
2022-08-28T08:37:31.740Z,31.40
2022-08-28T08:40:04.747Z,31.00
2022-08-28T08:42:38.827Z,31.60
2022-08-28T08:45:15.292Z,31.80
2022-08-28T08:47:51.827Z,32.10
2022-08-28T08:50:24.297Z,31.80
2022-08-28T08:53:10.498Z,31.80
2022-08-28T08:55:47.548Z,31.40
2022-08-28T08:58:25.500Z,31.60
2022-08-28T09:01:07.898Z,32.20
2022-08-28T09:03:53.799Z,32.90
2022-08-28T09:06:30.467Z,33.20
2022-08-28T09:09:03.385Z,33.10
2022-08-28T09:11:47.297Z,31.50
2022-08-28T09:14:36.798Z,30.90
2022-08-28T09:17:07.059Z,30.60
2022-08-28T09:19:36.618Z,30.70
2022-08-28T09:22:06.084Z,31.40
2022-08-28T09:24:38.780Z,31.70
2022-08-28T09:27:22.491Z,32.10
2022-08-28T09:29:59.157Z,32.40
2022-08-28T09:32:39.019Z,32.40
2022-08-28T09:35:15.194Z,32.60
2022-08-28T09:37:46.797Z,32.80
2022-08-28T09:40:19.599Z,32.70
2022-08-28T09:43:22.901Z,32.50
2022-08-28T09:45:59.860Z,31.60
2022-08-28T09:48:38.354Z,31.60
2022-08-28T09:51:09.566Z,31.40
2022-08-28T09:53:46.231Z,31.00
2022-08-28T09:56:21.578Z,30.80
2022-08-28T09:58:56.195Z,30.90
2022-08-28T10:01:38.255Z,31.00
2022-08-28T10:04:20.968Z,30.20
2022-08-28T10:06:55.039Z,29.50
2022-08-28T10:09:29.428Z,29.20
2022-08-28T10:12:06.533Z,29.10
2022-08-28T10:14:55.277Z,29.30
2022-08-28T10:17:36.680Z,29.30
2022-08-28T10:20:15.951Z,29.00
2022-08-28T10:22:51.243Z,28.50
2022-08-28T10:25:30.840Z,27.80
2022-08-28T10:28:25.239Z,28.20
2022-08-28T10:31:16.240Z,28.30
2022-08-28T10:34:19.374Z,28.70
2022-08-28T10:37:06.231Z,28.70
2022-08-28T10:39:45.871Z,29.10
2022-08-28T10:42:18.225Z,29.20
2022-08-28T10:44:54.512Z,29.20
2022-08-28T10:47:29.748Z,28.70
2022-08-28T10:50:04.652Z,28.60
2022-08-28T10:53:15.997Z,28.60
2022-08-28T10:55:55.683Z,29.00
2022-08-28T10:58:33.493Z,28.90
2022-08-28T11:01:13.386Z,28.90
2022-08-28T11:03:49.592Z,29.20
2022-08-28T11:06:30.339Z,29.30
2022-08-28T11:09:24.389Z,29.50
2022-08-28T11:12:01.197Z,29.20
2022-08-28T11:14:35.472Z,28.80
2022-08-28T11:17:14.220Z,28.80
2022-08-28T11:20:20.832Z,29.00
2022-08-28T11:22:55.416Z,29.10
2022-08-28T11:25:33.091Z,29.60
2022-08-28T11:28:19.542Z,29.70
2022-08-28T11:30:53.150Z,28.80
2022-08-28T11:33:41.667Z,28.60
2022-08-28T11:37:05.547Z,28.70
2022-08-28T11:39:34.911Z,29.00
2022-08-28T11:42:36.881Z,28.90
2022-08-28T11:45:07.307Z,29.20
2022-08-28T11:47:56.923Z,28.40
2022-08-28T11:50:54.162Z,28.40
2022-08-28T11:53:49.368Z,28.80
2022-08-28T11:56:42.658Z,28.60
2022-08-28T11:59:39.040Z,28.70
2022-08-28T12:02:48.230Z,28.70
2022-08-28T12:05:44.270Z,28.50
2022-08-28T12:08:35.424Z,28.50
2022-08-28T12:11:05.634Z,28.50
2022-08-28T12:13:58.895Z,28.20
2022-08-28T12:16:27.785Z,28.40
2022-08-28T12:19:06.886Z,28.20
2022-08-28T12:21:41.846Z,28.00
2022-08-28T12:24:22.421Z,28.00
2022-08-28T12:26:58.423Z,28.30
2022-08-28T12:29:33.491Z,28.90
2022-08-28T12:32:27.058Z,28.90
2022-08-28T12:35:19.283Z,28.90
2022-08-28T12:38:03.304Z,28.60
2022-08-28T12:40:53.522Z,28.50
2022-08-28T12:43:51.253Z,28.50
2022-08-28T12:46:25.296Z,28.50
2022-08-28T12:48:56.682Z,28.50
2022-08-28T12:51:29.536Z,28.50
2022-08-28T12:54:01.086Z,28.40
2022-08-28T12:56:34.570Z,28.50
2022-08-28T12:59:34.338Z,28.40
2022-08-28T13:02:05.767Z,28.00
2022-08-28T13:04:39.581Z,27.20
2022-08-28T13:07:12.325Z,26.70
2022-08-28T13:09:48.684Z,26.50
2022-08-28T13:12:32.017Z,26.60
2022-08-28T13:15:14.596Z,26.80
2022-08-28T13:17:55.166Z,26.90
2022-08-28T13:20:29.048Z,26.70
2022-08-28T13:22:58.347Z,26.50
2022-08-28T13:25:29.690Z,26.10
2022-08-28T13:28:00.878Z,25.90
2022-08-28T13:30:34.157Z,25.70
2022-08-28T13:33:05.834Z,25.60
2022-08-28T13:35:42.357Z,25.70
2022-08-28T13:38:13.689Z,26.10
2022-08-28T13:41:08.072Z,26.50
2022-08-28T13:43:46.002Z,26.70
2022-08-28T13:46:16.520Z,26.20
2022-08-28T13:48:45.242Z,26.20
2022-08-28T13:51:21.096Z,26.10
2022-08-28T13:53:50.232Z,25.90
2022-08-28T13:56:21.960Z,26.00
2022-08-28T13:58:57.401Z,26.10
2022-08-28T14:01:50.166Z,26.20
2022-08-28T14:04:17.947Z,26.30
2022-08-28T14:06:47.016Z,26.40
2022-08-28T14:09:17.810Z,26.30
2022-08-28T14:11:47.303Z,26.10
2022-08-28T14:14:16.479Z,26.10
2022-08-28T14:16:53.528Z,25.90
2022-08-28T14:19:23.000Z,25.70
2022-08-28T14:21:53.029Z,25.70
2022-08-28T14:24:22.466Z,25.50
2022-08-28T14:26:54.067Z,25.50
2022-08-28T14:29:23.212Z,25.40
2022-08-28T14:31:53.921Z,25.20
2022-08-28T14:34:24.006Z,25.10
2022-08-28T14:36:55.560Z,25.00
2022-08-28T14:39:26.430Z,25.00
2022-08-28T14:41:56.017Z,24.80
2022-08-28T14:44:26.332Z,25.00
2022-08-28T14:46:57.194Z,24.90
2022-08-28T14:49:28.623Z,24.90
2022-08-28T14:51:57.881Z,24.90
2022-08-28T14:54:28.150Z,24.80
2022-08-28T14:56:59.654Z,24.80
2022-08-28T14:59:31.752Z,24.90
2022-08-28T15:02:03.660Z,25.10
2022-08-28T15:04:38.370Z,25.20
2022-08-28T15:07:13.233Z,25.40
2022-08-28T15:09:44.022Z,25.20
2022-08-28T15:12:13.003Z,25.10
2022-08-28T15:14:54.908Z,25.10
2022-08-28T15:17:34.234Z,25.10
2022-08-28T15:20:05.729Z,25.10
2022-08-28T15:22:35.090Z,24.90
2022-08-28T15:25:04.141Z,24.80
2022-08-28T15:27:33.447Z,24.70
2022-08-28T15:30:02.336Z,24.70
2022-08-28T15:32:32.836Z,24.70
2022-08-28T15:35:02.231Z,24.80
2022-08-28T15:37:31.589Z,24.90
2022-08-28T15:40:17.840Z,24.80
2022-08-28T15:42:46.804Z,24.80
2022-08-28T15:45:16.620Z,24.90
2022-08-28T15:47:47.352Z,24.80
2022-08-28T15:50:19.981Z,24.70
2022-08-28T15:52:49.288Z,24.60
2022-08-28T15:55:21.159Z,24.70
2022-08-28T15:57:50.759Z,24.60
2022-08-28T16:00:20.089Z,24.40
2022-08-28T16:02:51.571Z,24.30
2022-08-28T16:05:20.476Z,24.20
2022-08-28T16:07:51.131Z,24.10
2022-08-28T16:10:22.888Z,24.10
2022-08-28T16:12:57.348Z,24.20
2022-08-28T16:15:26.935Z,24.50
2022-08-28T16:17:57.494Z,24.60
2022-08-28T16:20:47.039Z,24.40
2022-08-28T16:23:16.359Z,24.30
2022-08-28T16:25:46.449Z,24.20
2022-08-28T16:28:18.536Z,24.10
2022-08-28T16:30:47.880Z,24.10
2022-08-28T16:33:33.804Z,24.00
2022-08-28T16:36:04.109Z,24.00
2022-08-28T16:38:33.483Z,24.00
2022-08-28T16:41:03.610Z,24.20
2022-08-28T16:43:43.774Z,24.20
2022-08-28T16:46:15.342Z,24.10
2022-08-28T16:48:47.156Z,24.00
2022-08-28T16:51:20.807Z,24.00
2022-08-28T16:53:49.853Z,24.00
2022-08-28T16:56:19.401Z,23.70
2022-08-28T16:58:49.085Z,23.60
2022-08-28T17:01:24.544Z,23.60
2022-08-28T17:03:56.524Z,23.50
2022-08-28T17:06:28.351Z,23.30
2022-08-28T17:09:00.677Z,23.30
2022-08-28T17:11:32.048Z,23.20
2022-08-28T17:14:02.143Z,23.10
2022-08-28T17:16:32.593Z,23.10
2022-08-28T17:19:03.541Z,22.90
2022-08-28T17:21:46.113Z,23.10
2022-08-28T17:24:17.296Z,22.90
2022-08-28T17:26:46.267Z,23.40
2022-08-28T17:29:33.978Z,23.30
2022-08-28T17:32:03.412Z,23.40
2022-08-28T17:34:34.513Z,23.50
2022-08-28T17:37:03.573Z,23.50
2022-08-28T17:39:32.859Z,23.60
2022-08-28T17:42:04.220Z,23.40
2022-08-28T17:44:36.475Z,23.60
2022-08-28T17:47:06.547Z,23.60
2022-08-28T17:49:40.590Z,23.40
2022-08-28T17:52:12.199Z,23.30
2022-08-28T17:54:43.019Z,23.30
2022-08-28T17:57:12.256Z,23.20
2022-08-28T17:59:41.792Z,23.30
2022-08-28T18:02:11.305Z,23.30
2022-08-28T18:04:41.649Z,23.10
2022-08-28T18:07:10.794Z,23.10
2022-08-28T18:09:40.141Z,23.00
2022-08-28T18:12:12.773Z,22.90
2022-08-28T18:14:42.226Z,22.90
2022-08-28T18:17:13.600Z,22.90
2022-08-28T18:19:44.840Z,22.90
2022-08-28T18:22:15.153Z,22.70
2022-08-28T18:24:44.666Z,22.60
2022-08-28T18:27:17.215Z,22.60
2022-08-28T18:29:46.250Z,22.50
2022-08-28T18:32:17.746Z,22.50
2022-08-28T18:34:48.789Z,22.40
2022-08-28T18:37:17.911Z,22.20
2022-08-28T18:39:47.195Z,22.10
2022-08-28T18:42:17.572Z,22.00
2022-08-28T18:44:46.796Z,22.40
2022-08-28T18:47:15.593Z,22.40
2022-08-28T18:49:44.332Z,22.40
2022-08-28T18:52:15.246Z,22.20
2022-08-28T18:54:44.395Z,22.20
2022-08-28T18:57:15.370Z,22.10
2022-08-28T18:59:45.666Z,21.90
2022-08-28T19:02:15.375Z,21.90
2022-08-28T19:04:44.918Z,22.00
2022-08-28T19:07:16.083Z,21.90
2022-08-28T19:09:45.541Z,21.70
2022-08-28T19:12:15.342Z,21.70
2022-08-28T19:14:45.679Z,21.80
2022-08-28T19:17:19.055Z,21.80
2022-08-28T19:19:50.850Z,21.80
2022-08-28T19:22:22.952Z,21.80
2022-08-28T19:24:52.280Z,21.50
2022-08-28T19:27:22.744Z,21.50
2022-08-28T19:29:52.178Z,21.40
2022-08-28T19:32:25.325Z,21.20
2022-08-28T19:34:57.400Z,21.10
2022-08-28T19:37:28.223Z,21.00
2022-08-28T19:39:57.972Z,21.00
2022-08-28T19:42:29.120Z,21.00
2022-08-28T19:44:59.993Z,20.90
2022-08-28T19:47:35.673Z,20.60
2022-08-28T19:50:07.540Z,20.60
2022-08-28T19:52:38.625Z,20.60
2022-08-28T19:55:12.176Z,20.60
2022-08-28T19:57:41.230Z,20.50
2022-08-28T20:00:12.101Z,20.30
2022-08-28T20:02:41.028Z,20.30
2022-08-28T20:05:11.631Z,20.40
2022-08-28T20:07:42.941Z,20.10
2022-08-28T20:10:13.632Z,20.10
2022-08-28T20:12:48.158Z,20.20
2022-08-28T20:15:19.697Z,20.00
2022-08-28T20:17:50.207Z,19.90
2022-08-28T20:20:26.718Z,19.90
2022-08-28T20:23:02.251Z,19.90
2022-08-28T20:25:31.686Z,19.80
2022-08-28T20:28:01.842Z,19.90
2022-08-28T20:30:31.464Z,19.80
2022-08-28T20:33:01.698Z,19.80
2022-08-28T20:35:31.844Z,19.80
2022-08-28T20:38:06.826Z,19.90
2022-08-28T20:40:36.306Z,19.60
2022-08-28T20:43:11.304Z,19.70
2022-08-28T20:45:41.809Z,19.80
2022-08-28T20:48:10.732Z,19.90
2022-08-28T20:50:46.168Z,19.70
2022-08-28T20:53:23.722Z,19.60
2022-08-28T20:56:07.496Z,19.40
2022-08-28T20:58:42.183Z,19.20
2022-08-28T21:01:15.989Z,19.00
2022-08-28T21:03:57.857Z,18.80
2022-08-28T21:06:27.343Z,18.90
2022-08-28T21:08:59.554Z,18.70
2022-08-28T21:11:29.977Z,18.70
2022-08-28T21:13:58.823Z,18.70
2022-08-28T21:16:27.812Z,18.70
2022-08-28T21:19:15.273Z,18.80
2022-08-28T21:21:48.693Z,18.80
2022-08-28T21:24:21.023Z,18.60
2022-08-28T21:26:51.845Z,18.60
2022-08-28T21:29:22.226Z,19.10
2022-08-28T21:31:53.131Z,19.30
2022-08-28T21:34:23.068Z,19.50
2022-08-28T21:36:53.748Z,19.50
2022-08-28T21:39:25.249Z,19.60
2022-08-28T21:41:56.245Z,19.60
2022-08-28T21:44:26.077Z,19.60
2022-08-28T21:46:58.522Z,19.50
2022-08-28T21:49:27.799Z,19.50
2022-08-28T21:51:57.256Z,19.30
2022-08-28T21:54:27.683Z,19.30
2022-08-28T21:56:58.863Z,19.20
2022-08-28T21:59:33.070Z,19.20
2022-08-28T22:02:07.450Z,19.20
2022-08-28T22:04:36.901Z,19.30
2022-08-28T22:07:05.932Z,19.40
2022-08-28T22:09:36.641Z,19.30
2022-08-28T22:12:06.182Z,19.30
2022-08-28T22:14:35.012Z,19.30
2022-08-28T22:17:11.354Z,19.30
2022-08-28T22:19:41.268Z,19.20
2022-08-28T22:22:27.471Z,19.10
2022-08-28T22:24:57.760Z,19.00
2022-08-28T22:27:26.714Z,19.00
2022-08-28T22:29:55.585Z,18.90
2022-08-28T22:32:27.010Z,19.00
2022-08-28T22:34:56.068Z,19.10
2022-08-28T22:37:25.945Z,19.00
2022-08-28T22:39:55.127Z,19.10
2022-08-28T22:42:27.042Z,19.00
2022-08-28T22:44:55.774Z,19.00
2022-08-28T22:47:24.629Z,18.90
2022-08-28T22:49:56.172Z,18.90
2022-08-28T22:52:26.213Z,18.70
2022-08-28T22:54:55.572Z,18.60
2022-08-28T22:57:26.831Z,18.70
2022-08-28T22:59:55.755Z,18.70
2022-08-28T23:02:27.164Z,18.70
2022-08-28T23:04:56.419Z,18.70
2022-08-28T23:07:25.099Z,18.70
2022-08-28T23:09:54.036Z,18.80
2022-08-28T23:12:22.929Z,18.90
2022-08-28T23:14:53.263Z,18.70
2022-08-28T23:17:22.009Z,18.70
2022-08-28T23:19:51.563Z,18.90
2022-08-28T23:22:20.314Z,18.60
2022-08-28T23:24:49.173Z,19.00
2022-08-28T23:27:35.860Z,18.90
2022-08-28T23:30:09.392Z,18.90
2022-08-28T23:32:38.373Z,18.40
2022-08-28T23:35:09.761Z,18.80
2022-08-28T23:37:40.248Z,18.80
2022-08-28T23:40:12.919Z,18.70
2022-08-28T23:45:20.222Z,18.30
2022-08-28T23:47:49.583Z,18.10
2022-08-28T23:50:20.712Z,18.10
2022-08-28T23:52:50.329Z,18.00
2022-08-28T23:55:20.575Z,18.00
2022-08-28T23:57:52.286Z,18.00
